Arpan, South Dakota
Current Conditions -  °F | °C
As of 4:55 PM on Wednesday 22 Oct 2014 (Local Time) from KSPF Reporting Station
Clear Clear  
Wind Chill: 57°   Ceiling: Unl
Heat Index: 57°   Visibility: 10mi
Dew Point: 28°   Wind: 9mph
Humidity: 33%   Direction: 270°W
Pressure: 30.01"   Gusts: NA
Location:  44.6391°N, 103.522°W
Report Text: KSPF 222255Z AUTO 27008KT 10SM CLR 14/M02 A3001 RMK AO2
Loading
Personal Weather Stations






























Interactive Weather Map
Tropical Storm Tracking
New forecast layout! Learn more

10-Day Weather Forecast

Advertisements
Track Severe Weather on mobile